sensor_id;sensor_type;location;lat;lon;timestamp;temperature;humidity
33841;DHT22;20142;28.494;-16.312;2023-10-31T00:01:05;20.90;89.60
33841;DHT22;20142;28.494;-16.312;2023-10-31T00:06:07;20.80;89.90
33841;DHT22;20142;28.494;-16.312;2023-10-31T00:11:08;20.90;89.70
33841;DHT22;20142;28.494;-16.312;2023-10-31T00:16:10;20.80;89.40
33841;DHT22;20142;28.494;-16.312;2023-10-31T00:21:12;20.80;89.80
33841;DHT22;20142;28.494;-16.312;2023-10-31T00:26:14;20.70;90.20
33841;DHT22;20142;28.494;-16.312;2023-10-31T00:31:16;20.80;90.00
33841;DHT22;20142;28.494;-16.312;2023-10-31T00:36:17;20.80;89.50
33841;DHT22;20142;28.494;-16.312;2023-10-31T00:41:19;20.70;89.90
33841;DHT22;20142;28.494;-16.312;2023-10-31T00:46:21;20.90;89.80
33841;DHT22;20142;28.494;-16.312;2023-10-31T00:51:22;20.90;89.70
33841;DHT22;20142;28.494;-16.312;2023-10-31T00:56:24;20.90;89.80
33841;DHT22;20142;28.494;-16.312;2023-10-31T01:01:26;20.90;89.60
33841;DHT22;20142;28.494;-16.312;2023-10-31T01:06:27;20.70;89.90
33841;DHT22;20142;28.494;-16.312;2023-10-31T01:11:29;20.70;90.00
33841;DHT22;20142;28.494;-16.312;2023-10-31T01:16:31;20.60;90.10
33841;DHT22;20142;28.494;-16.312;2023-10-31T01:21:33;20.60;90.10
33841;DHT22;20142;28.494;-16.312;2023-10-31T01:26:35;20.70;90.20
33841;DHT22;20142;28.494;-16.312;2023-10-31T01:31:37;20.70;90.00
33841;DHT22;20142;28.494;-16.312;2023-10-31T01:36:38;20.60;90.20
33841;DHT22;20142;28.494;-16.312;2023-10-31T01:41:43;20.60;90.30
33841;DHT22;20142;28.494;-16.312;2023-10-31T01:46:45;20.70;90.50
33841;DHT22;20142;28.494;-16.312;2023-10-31T01:51:47;20.70;90.10
33841;DHT22;20142;28.494;-16.312;2023-10-31T01:56:49;20.60;90.30
33841;DHT22;20142;28.494;-16.312;2023-10-31T02:01:55;20.60;90.20
33841;DHT22;20142;28.494;-16.312;2023-10-31T02:06:58;20.30;90.60
33841;DHT22;20142;28.494;-16.312;2023-10-31T02:12:00;20.50;90.50
33841;DHT22;20142;28.494;-16.312;2023-10-31T02:17:01;20.40;90.30
33841;DHT22;20142;28.494;-16.312;2023-10-31T02:22:03;20.50;90.40
33841;DHT22;20142;28.494;-16.312;2023-10-31T02:27:05;20.50;90.40
33841;DHT22;20142;28.494;-16.312;2023-10-31T02:32:07;20.40;90.30
33841;DHT22;20142;28.494;-16.312;2023-10-31T02:37:08;20.20;90.50
33841;DHT22;20142;28.494;-16.312;2023-10-31T02:42:10;20.20;90.60
33841;DHT22;20142;28.494;-16.312;2023-10-31T02:47:12;20.20;90.80
33841;DHT22;20142;28.494;-16.312;2023-10-31T02:52:13;20.20;90.50
33841;DHT22;20142;28.494;-16.312;2023-10-31T02:57:16;20.10;90.70
33841;DHT22;20142;28.494;-16.312;2023-10-31T03:02:18;20.10;90.80
33841;DHT22;20142;28.494;-16.312;2023-10-31T03:07:20;20.10;90.80
33841;DHT22;20142;28.494;-16.312;2023-10-31T03:12:21;20.30;90.90
33841;DHT22;20142;28.494;-16.312;2023-10-31T03:17:24;20.00;90.40
33841;DHT22;20142;28.494;-16.312;2023-10-31T03:22:28;20.20;90.80
33841;DHT22;20142;28.494;-16.312;2023-10-31T03:27:30;20.20;90.40
33841;DHT22;20142;28.494;-16.312;2023-10-31T03:32:32;20.20;90.60
33841;DHT22;20142;28.494;-16.312;2023-10-31T03:37:33;20.20;90.70
33841;DHT22;20142;28.494;-16.312;2023-10-31T03:42:37;20.00;90.80
33841;DHT22;20142;28.494;-16.312;2023-10-31T03:47:38;20.10;90.90
33841;DHT22;20142;28.494;-16.312;2023-10-31T03:52:40;20.10;90.60
33841;DHT22;20142;28.494;-16.312;2023-10-31T03:57:42;20.00;90.90
33841;DHT22;20142;28.494;-16.312;2023-10-31T04:02:43;20.00;90.70
33841;DHT22;20142;28.494;-16.312;2023-10-31T04:07:46;20.00;90.90
33841;DHT22;20142;28.494;-16.312;2023-10-31T04:12:48;19.90;90.80
33841;DHT22;20142;28.494;-16.312;2023-10-31T04:17:50;20.00;90.60
33841;DHT22;20142;28.494;-16.312;2023-10-31T04:22:52;20.00;90.60
33841;DHT22;20142;28.494;-16.312;2023-10-31T04:27:53;19.90;91.20
33841;DHT22;20142;28.494;-16.312;2023-10-31T04:32:55;20.10;91.00
33841;DHT22;20142;28.494;-16.312;2023-10-31T04:37:57;20.10;90.70
33841;DHT22;20142;28.494;-16.312;2023-10-31T04:42:58;19.90;90.50
33841;DHT22;20142;28.494;-16.312;2023-10-31T04:48:00;20.00;90.80
33841;DHT22;20142;28.494;-16.312;2023-10-31T04:53:02;20.00;90.90
33841;DHT22;20142;28.494;-16.312;2023-10-31T04:58:03;20.00;90.60
33841;DHT22;20142;28.494;-16.312;2023-10-31T05:03:05;20.10;90.70
33841;DHT22;20142;28.494;-16.312;2023-10-31T05:08:07;20.10;90.80
33841;DHT22;20142;28.494;-16.312;2023-10-31T05:13:09;20.00;90.80
33841;DHT22;20142;28.494;-16.312;2023-10-31T05:18:11;20.00;90.80
33841;DHT22;20142;28.494;-16.312;2023-10-31T05:23:14;20.10;90.60
33841;DHT22;20142;28.494;-16.312;2023-10-31T05:28:15;20.10;90.70
33841;DHT22;20142;28.494;-16.312;2023-10-31T05:33:17;19.90;90.50
33841;DHT22;20142;28.494;-16.312;2023-10-31T05:38:19;20.00;90.60
33841;DHT22;20142;28.494;-16.312;2023-10-31T05:43:21;19.90;90.70
33841;DHT22;20142;28.494;-16.312;2023-10-31T05:48:22;19.90;90.90
33841;DHT22;20142;28.494;-16.312;2023-10-31T05:53:24;20.00;90.90
33841;DHT22;20142;28.494;-16.312;2023-10-31T05:58:26;19.90;90.90
33841;DHT22;20142;28.494;-16.312;2023-10-31T06:03:27;20.00;91.00
33841;DHT22;20142;28.494;-16.312;2023-10-31T06:08:29;19.90;90.70
33841;DHT22;20142;28.494;-16.312;2023-10-31T06:13:31;19.80;90.70
33841;DHT22;20142;28.494;-16.312;2023-10-31T06:18:33;19.80;91.00
33841;DHT22;20142;28.494;-16.312;2023-10-31T06:23:39;19.90;91.00
33841;DHT22;20142;28.494;-16.312;2023-10-31T06:28:40;19.80;90.80
33841;DHT22;20142;28.494;-16.312;2023-10-31T06:33:42;19.70;90.80
33841;DHT22;20142;28.494;-16.312;2023-10-31T06:38:44;19.70;90.90
33841;DHT22;20142;28.494;-16.312;2023-10-31T06:43:45;19.70;91.00
33841;DHT22;20142;28.494;-16.312;2023-10-31T06:48:47;19.70;91.10
33841;DHT22;20142;28.494;-16.312;2023-10-31T06:53:49;19.70;90.90
33841;DHT22;20142;28.494;-16.312;2023-10-31T06:58:52;19.70;91.00
33841;DHT22;20142;28.494;-16.312;2023-10-31T07:03:53;19.70;91.00
33841;DHT22;20142;28.494;-16.312;2023-10-31T07:08:55;19.80;90.80
33841;DHT22;20142;28.494;-16.312;2023-10-31T07:13:58;19.70;91.00
33841;DHT22;20142;28.494;-16.312;2023-10-31T07:19:00;19.70;91.00
33841;DHT22;20142;28.494;-16.312;2023-10-31T07:24:02;19.70;90.80
33841;DHT22;20142;28.494;-16.312;2023-10-31T07:29:04;19.60;91.00
33841;DHT22;20142;28.494;-16.312;2023-10-31T07:34:06;19.60;91.10
33841;DHT22;20142;28.494;-16.312;2023-10-31T07:39:07;19.50;90.80
33841;DHT22;20142;28.494;-16.312;2023-10-31T07:44:09;19.60;90.90
33841;DHT22;20142;28.494;-16.312;2023-10-31T07:49:11;19.60;91.20
33841;DHT22;20142;28.494;-16.312;2023-10-31T07:54:12;19.60;90.80
33841;DHT22;20142;28.494;-16.312;2023-10-31T07:59:15;19.60;90.80
33841;DHT22;20142;28.494;-16.312;2023-10-31T08:04:16;19.70;90.80
33841;DHT22;20142;28.494;-16.312;2023-10-31T08:09:18;19.80;91.20
33841;DHT22;20142;28.494;-16.312;2023-10-31T08:14:22;20.00;91.30
33841;DHT22;20142;28.494;-16.312;2023-10-31T08:19:24;20.20;90.90
33841;DHT22;20142;28.494;-16.312;2023-10-31T08:24:25;20.30;90.70
33841;DHT22;20142;28.494;-16.312;2023-10-31T08:29:27;20.40;91.00
33841;DHT22;20142;28.494;-16.312;2023-10-31T08:34:29;20.50;90.80
33841;DHT22;20142;28.494;-16.312;2023-10-31T08:39:30;20.70;90.80
33841;DHT22;20142;28.494;-16.312;2023-10-31T08:44:32;20.80;91.20
33841;DHT22;20142;28.494;-16.312;2023-10-31T08:49:34;21.00;90.70
33841;DHT22;20142;28.494;-16.312;2023-10-31T08:54:36;21.50;90.70
33841;DHT22;20142;28.494;-16.312;2023-10-31T08:59:38;21.90;90.10
33841;DHT22;20142;28.494;-16.312;2023-10-31T09:04:40;22.30;89.80
33841;DHT22;20142;28.494;-16.312;2023-10-31T09:09:42;22.60;89.70
33841;DHT22;20142;28.494;-16.312;2023-10-31T09:14:44;22.90;89.30
33841;DHT22;20142;28.494;-16.312;2023-10-31T09:19:46;23.10;88.90
33841;DHT22;20142;28.494;-16.312;2023-10-31T09:24:47;23.10;89.00
33841;DHT22;20142;28.494;-16.312;2023-10-31T09:29:49;23.40;88.70
33841;DHT22;20142;28.494;-16.312;2023-10-31T09:34:52;23.60;88.10
33841;DHT22;20142;28.494;-16.312;2023-10-31T09:39:54;23.80;87.00
33841;DHT22;20142;28.494;-16.312;2023-10-31T09:44:57;24.00;86.70
33841;DHT22;20142;28.494;-16.312;2023-10-31T09:49:59;24.30;86.40
33841;DHT22;20142;28.494;-16.312;2023-10-31T09:55:01;24.30;85.60
33841;DHT22;20142;28.494;-16.312;2023-10-31T10:00:04;24.60;85.20
33841;DHT22;20142;28.494;-16.312;2023-10-31T10:05:09;24.90;85.00
33841;DHT22;20142;28.494;-16.312;2023-10-31T10:10:14;25.20;84.70
33841;DHT22;20142;28.494;-16.312;2023-10-31T10:15:16;25.30;84.30
33841;DHT22;20142;28.494;-16.312;2023-10-31T10:20:18;25.40;83.10
33841;DHT22;20142;28.494;-16.312;2023-10-31T10:25:20;25.10;83.00
33841;DHT22;20142;28.494;-16.312;2023-10-31T10:30:22;24.80;83.20
33841;DHT22;20142;28.494;-16.312;2023-10-31T10:35:24;24.50;82.90
33841;DHT22;20142;28.494;-16.312;2023-10-31T10:40:26;24.70;82.90
33841;DHT22;20142;28.494;-16.312;2023-10-31T10:45:28;25.00;82.50
33841;DHT22;20142;28.494;-16.312;2023-10-31T10:50:30;24.70;82.80
33841;DHT22;20142;28.494;-16.312;2023-10-31T10:55:39;24.60;82.90
33841;DHT22;20142;28.494;-16.312;2023-10-31T11:00:46;24.80;82.40
33841;DHT22;20142;28.494;-16.312;2023-10-31T11:05:48;25.30;82.50
33841;DHT22;20142;28.494;-16.312;2023-10-31T11:10:51;25.10;81.90
33841;DHT22;20142;28.494;-16.312;2023-10-31T11:15:59;24.90;81.80
33841;DHT22;20142;28.494;-16.312;2023-10-31T11:21:04;24.90;81.90
33841;DHT22;20142;28.494;-16.312;2023-10-31T11:26:09;24.90;81.90
33841;DHT22;20142;28.494;-16.312;2023-10-31T11:31:11;25.20;81.60
33841;DHT22;20142;28.494;-16.312;2023-10-31T11:36:13;25.20;81.90
33841;DHT22;20142;28.494;-16.312;2023-10-31T11:41:16;25.30;81.10
33841;DHT22;20142;28.494;-16.312;2023-10-31T11:46:19;25.20;81.00
33841;DHT22;20142;28.494;-16.312;2023-10-31T11:51:22;25.00;80.70
33841;DHT22;20142;28.494;-16.312;2023-10-31T11:56:24;24.80;81.30
33841;DHT22;20142;28.494;-16.312;2023-10-31T12:01:26;24.90;81.20
33841;DHT22;20142;28.494;-16.312;2023-10-31T12:06:28;25.20;80.70
33841;DHT22;20142;28.494;-16.312;2023-10-31T12:11:30;25.40;80.50
33841;DHT22;20142;28.494;-16.312;2023-10-31T12:16:33;25.20;80.50
33841;DHT22;20142;28.494;-16.312;2023-10-31T12:26:45;25.10;80.80
33841;DHT22;20142;28.494;-16.312;2023-10-31T12:36:54;25.30;80.50
33841;DHT22;20142;28.494;-16.312;2023-10-31T12:41:56;25.40;80.30
33841;DHT22;20142;28.494;-16.312;2023-10-31T12:46:59;25.50;80.60
33841;DHT22;20142;28.494;-16.312;2023-10-31T12:52:02;25.80;80.30
33841;DHT22;20142;28.494;-16.312;2023-10-31T12:57:09;25.90;80.00
33841;DHT22;20142;28.494;-16.312;2023-10-31T13:02:16;26.00;80.10
33841;DHT22;20142;28.494;-16.312;2023-10-31T13:07:26;26.30;79.50
33841;DHT22;20142;28.494;-16.312;2023-10-31T13:12:30;26.20;79.70
33841;DHT22;20142;28.494;-16.312;2023-10-31T13:17:32;26.10;80.10
33841;DHT22;20142;28.494;-16.312;2023-10-31T13:22:33;26.20;80.20
33841;DHT22;20142;28.494;-16.312;2023-10-31T13:27:38;26.20;80.90
33841;DHT22;20142;28.494;-16.312;2023-10-31T13:32:45;26.40;80.90
33841;DHT22;20142;28.494;-16.312;2023-10-31T13:37:47;26.60;80.30
33841;DHT22;20142;28.494;-16.312;2023-10-31T13:42:49;27.00;80.90
33841;DHT22;20142;28.494;-16.312;2023-10-31T13:47:50;26.40;80.80
33841;DHT22;20142;28.494;-16.312;2023-10-31T13:52:52;26.00;83.10
33841;DHT22;20142;28.494;-16.312;2023-10-31T13:57:54;25.60;83.50
33841;DHT22;20142;28.494;-16.312;2023-10-31T14:02:56;25.50;84.20
33841;DHT22;20142;28.494;-16.312;2023-10-31T14:07:57;26.00;84.00
33841;DHT22;20142;28.494;-16.312;2023-10-31T14:13:00;26.10;83.80
33841;DHT22;20142;28.494;-16.312;2023-10-31T14:18:02;26.90;82.60
33841;DHT22;20142;28.494;-16.312;2023-10-31T14:23:04;26.90;82.00
33841;DHT22;20142;28.494;-16.312;2023-10-31T14:28:06;26.90;82.10
33841;DHT22;20142;28.494;-16.312;2023-10-31T14:33:07;27.00;81.60
33841;DHT22;20142;28.494;-16.312;2023-10-31T14:38:09;26.40;82.00
33841;DHT22;20142;28.494;-16.312;2023-10-31T14:43:11;26.20;82.90
33841;DHT22;20142;28.494;-16.312;2023-10-31T14:48:19;26.00;83.00
33841;DHT22;20142;28.494;-16.312;2023-10-31T14:53:20;27.80;80.80
33841;DHT22;20142;28.494;-16.312;2023-10-31T14:58:22;29.40;77.70
33841;DHT22;20142;28.494;-16.312;2023-10-31T15:03:24;28.80;79.60
33841;DHT22;20142;28.494;-16.312;2023-10-31T15:08:26;27.20;80.10
33841;DHT22;20142;28.494;-16.312;2023-10-31T15:13:27;26.00;83.10
33841;DHT22;20142;28.494;-16.312;2023-10-31T15:18:29;25.60;84.20
33841;DHT22;20142;28.494;-16.312;2023-10-31T15:23:31;26.10;84.50
33841;DHT22;20142;28.494;-16.312;2023-10-31T15:28:32;26.30;84.30
33841;DHT22;20142;28.494;-16.312;2023-10-31T15:33:34;26.10;85.20
33841;DHT22;20142;28.494;-16.312;2023-10-31T15:38:36;25.90;85.20
33841;DHT22;20142;28.494;-16.312;2023-10-31T15:43:37;27.00;84.00
33841;DHT22;20142;28.494;-16.312;2023-10-31T15:48:39;26.40;84.20
33841;DHT22;20142;28.494;-16.312;2023-10-31T15:53:42;26.00;85.30
33841;DHT22;20142;28.494;-16.312;2023-10-31T15:58:44;25.50;86.00
33841;DHT22;20142;28.494;-16.312;2023-10-31T16:03:45;25.30;86.40
33841;DHT22;20142;28.494;-16.312;2023-10-31T16:08:47;26.20;86.40
33841;DHT22;20142;28.494;-16.312;2023-10-31T16:13:49;26.20;86.40
33841;DHT22;20142;28.494;-16.312;2023-10-31T16:18:52;25.90;86.00
33841;DHT22;20142;28.494;-16.312;2023-10-31T16:23:54;25.10;86.90
33841;DHT22;20142;28.494;-16.312;2023-10-31T16:28:59;24.90;87.50
33841;DHT22;20142;28.494;-16.312;2023-10-31T16:34:02;24.40;87.70
33841;DHT22;20142;28.494;-16.312;2023-10-31T16:39:03;24.00;88.40
33841;DHT22;20142;28.494;-16.312;2023-10-31T16:44:06;23.70;89.40
33841;DHT22;20142;28.494;-16.312;2023-10-31T16:49:08;23.50;90.50
33841;DHT22;20142;28.494;-16.312;2023-10-31T16:54:09;23.40;91.10
33841;DHT22;20142;28.494;-16.312;2023-10-31T16:59:11;23.40;91.50
33841;DHT22;20142;28.494;-16.312;2023-10-31T17:04:13;23.10;91.50
33841;DHT22;20142;28.494;-16.312;2023-10-31T17:09:15;23.10;91.60
33841;DHT22;20142;28.494;-16.312;2023-10-31T17:14:17;23.10;92.30
33841;DHT22;20142;28.494;-16.312;2023-10-31T17:19:18;23.20;92.20
33841;DHT22;20142;28.494;-16.312;2023-10-31T17:24:20;23.30;92.70
33841;DHT22;20142;28.494;-16.312;2023-10-31T17:29:22;23.10;92.70
33841;DHT22;20142;28.494;-16.312;2023-10-31T17:34:24;23.00;92.60
33841;DHT22;20142;28.494;-16.312;2023-10-31T17:39:25;22.70;92.70
33841;DHT22;20142;28.494;-16.312;2023-10-31T17:44:27;22.40;93.10
33841;DHT22;20142;28.494;-16.312;2023-10-31T17:49:29;22.50;93.40
33841;DHT22;20142;28.494;-16.312;2023-10-31T17:54:31;22.40;93.10
33841;DHT22;20142;28.494;-16.312;2023-10-31T17:59:32;22.40;93.40
33841;DHT22;20142;28.494;-16.312;2023-10-31T18:04:34;22.50;93.10
33841;DHT22;20142;28.494;-16.312;2023-10-31T18:09:36;22.50;93.10
33841;DHT22;20142;28.494;-16.312;2023-10-31T18:14:38;22.60;93.00
33841;DHT22;20142;28.494;-16.312;2023-10-31T18:19:40;22.40;92.60
33841;DHT22;20142;28.494;-16.312;2023-10-31T18:24:41;22.30;92.50
33841;DHT22;20142;28.494;-16.312;2023-10-31T18:29:45;22.00;92.80
33841;DHT22;20142;28.494;-16.312;2023-10-31T18:34:47;21.90;93.00
33841;DHT22;20142;28.494;-16.312;2023-10-31T18:39:51;21.80;93.50
33841;DHT22;20142;28.494;-16.312;2023-10-31T18:44:53;21.70;93.40
33841;DHT22;20142;28.494;-16.312;2023-10-31T18:49:55;21.70;93.60
33841;DHT22;20142;28.494;-16.312;2023-10-31T18:54:57;21.60;93.60
33841;DHT22;20142;28.494;-16.312;2023-10-31T19:00:01;21.50;93.70
33841;DHT22;20142;28.494;-16.312;2023-10-31T19:05:04;21.50;94.00
33841;DHT22;20142;28.494;-16.312;2023-10-31T19:10:07;21.50;94.10
33841;DHT22;20142;28.494;-16.312;2023-10-31T19:15:11;21.60;94.30
33841;DHT22;20142;28.494;-16.312;2023-10-31T19:20:12;21.60;94.10
33841;DHT22;20142;28.494;-16.312;2023-10-31T19:25:14;21.60;94.10
33841;DHT22;20142;28.494;-16.312;2023-10-31T19:30:16;21.50;94.30
33841;DHT22;20142;28.494;-16.312;2023-10-31T19:35:18;21.50;94.40
33841;DHT22;20142;28.494;-16.312;2023-10-31T19:40:21;21.50;94.40
33841;DHT22;20142;28.494;-16.312;2023-10-31T19:45:23;21.60;94.50
33841;DHT22;20142;28.494;-16.312;2023-10-31T19:50:25;21.50;94.40
33841;DHT22;20142;28.494;-16.312;2023-10-31T19:55:27;21.20;94.80
33841;DHT22;20142;28.494;-16.312;2023-10-31T20:00:28;21.10;95.30
33841;DHT22;20142;28.494;-16.312;2023-10-31T20:05:30;20.90;95.70
33841;DHT22;20142;28.494;-16.312;2023-10-31T20:10:32;21.10;95.90
33841;DHT22;20142;28.494;-16.312;2023-10-31T20:15:34;21.20;96.20
33841;DHT22;20142;28.494;-16.312;2023-10-31T20:20:35;21.20;95.90
33841;DHT22;20142;28.494;-16.312;2023-10-31T20:25:37;21.20;95.90
33841;DHT22;20142;28.494;-16.312;2023-10-31T20:30:39;21.20;96.10
33841;DHT22;20142;28.494;-16.312;2023-10-31T20:35:41;21.20;96.20
33841;DHT22;20142;28.494;-16.312;2023-10-31T20:40:43;21.20;96.40
33841;DHT22;20142;28.494;-16.312;2023-10-31T20:45:45;21.30;96.60
33841;DHT22;20142;28.494;-16.312;2023-10-31T20:50:46;21.30;96.70
33841;DHT22;20142;28.494;-16.312;2023-10-31T20:55:48;21.20;96.40
33841;DHT22;20142;28.494;-16.312;2023-10-31T21:00:51;21.20;96.30
33841;DHT22;20142;28.494;-16.312;2023-10-31T21:05:52;21.20;96.60
33841;DHT22;20142;28.494;-16.312;2023-10-31T21:10:56;21.10;96.60
33841;DHT22;20142;28.494;-16.312;2023-10-31T21:15:57;21.30;96.90
33841;DHT22;20142;28.494;-16.312;2023-10-31T21:20:59;21.30;96.90
33841;DHT22;20142;28.494;-16.312;2023-10-31T21:26:01;21.30;96.70
33841;DHT22;20142;28.494;-16.312;2023-10-31T21:31:03;21.20;96.90
33841;DHT22;20142;28.494;-16.312;2023-10-31T21:36:05;21.20;97.10
33841;DHT22;20142;28.494;-16.312;2023-10-31T21:41:07;21.20;97.30
33841;DHT22;20142;28.494;-16.312;2023-10-31T21:46:09;21.10;97.20
33841;DHT22;20142;28.494;-16.312;2023-10-31T21:51:11;21.10;97.50
33841;DHT22;20142;28.494;-16.312;2023-10-31T21:56:13;21.20;97.40
33841;DHT22;20142;28.494;-16.312;2023-10-31T22:01:14;21.10;97.30
33841;DHT22;20142;28.494;-16.312;2023-10-31T22:06:16;21.10;97.70
33841;DHT22;20142;28.494;-16.312;2023-10-31T22:11:18;21.00;97.80
33841;DHT22;20142;28.494;-16.312;2023-10-31T22:16:20;21.00;97.50
33841;DHT22;20142;28.494;-16.312;2023-10-31T22:21:22;21.00;98.00
33841;DHT22;20142;28.494;-16.312;2023-10-31T22:26:25;21.00;98.40
33841;DHT22;20142;28.494;-16.312;2023-10-31T22:31:27;21.10;98.40
33841;DHT22;20142;28.494;-16.312;2023-10-31T22:36:29;20.90;98.30
33841;DHT22;20142;28.494;-16.312;2023-10-31T22:41:31;20.90;98.40
33841;DHT22;20142;28.494;-16.312;2023-10-31T22:46:32;20.90;99.20
33841;DHT22;20142;28.494;-16.312;2023-10-31T22:51:35;20.90;99.20
33841;DHT22;20142;28.494;-16.312;2023-10-31T22:56:37;20.90;99.50
33841;DHT22;20142;28.494;-16.312;2023-10-31T23:01:38;20.80;99.50
33841;DHT22;20142;28.494;-16.312;2023-10-31T23:06:40;20.90;98.70
33841;DHT22;20142;28.494;-16.312;2023-10-31T23:11:42;20.90;98.50
33841;DHT22;20142;28.494;-16.312;2023-10-31T23:16:44;20.90;99.00
33841;DHT22;20142;28.494;-16.312;2023-10-31T23:21:45;20.90;98.60
33841;DHT22;20142;28.494;-16.312;2023-10-31T23:26:47;20.90;98.70
33841;DHT22;20142;28.494;-16.312;2023-10-31T23:31:49;20.80;99.00
33841;DHT22;20142;28.494;-16.312;2023-10-31T23:36:50;20.90;98.40
33841;DHT22;20142;28.494;-16.312;2023-10-31T23:41:52;20.90;99.00
33841;DHT22;20142;28.494;-16.312;2023-10-31T23:46:54;21.00;98.90
33841;DHT22;20142;28.494;-16.312;2023-10-31T23:51:56;21.10;98.30
33841;DHT22;20142;28.494;-16.312;2023-10-31T23:56:58;21.10;98.40
